Details From CYPX - Puvirnituq
To CYYQ - Churchill
Flight Number -
Tags Standard
Created
Modified
Stats Distance 522 nm / 967 km
Max Altitude 35,000 ft / 10,668 m
Waypoints 5
Social Downloads 0
Likes 0
Share VATSIM

Download

Looking for another format? Having issues loading an existing format? Contact us
Advertisement - Login to hide

Notes

None

Route

CYPX MIBNA VIMSA YYQ CYYQ

ID Type Via Altitude Latitude Longitude Leg Dist Tot Dist Heading (true) Name
O CYPX APT - 74 ft / 23 m 60.05042˚ -77.28694˚ - 0 nm - PUVIRNITUQ
MIBNA FIX - 35,000 ft / 10,668 m 60.08333˚ -80.00000˚ 81 nm 81 nm 273° / 270° -
VIMSA FIX - 35,000 ft / 10,668 m 59.16667˚ -90.00000˚ 308 nm 389 nm 264° / 255° -
YYQ VOR - 1,427 ft / 435 m 58.74167˚ -94.13528˚ 130 nm 520 nm 261° / 257° CHURCHILL VOR-DME
O CYYQ APT - 94 ft / 29 m 58.73450˚ -94.06657˚ 2 nm 522 nm 101° / 101° -

Altitude Profile

Advertisement - Login to hide

Weather


0- 5 10 15 20 25 30 35+ Temperature / ° C

Clouds and Precipitation
Forecast for 2018-05-24 18:00 UTC. Updated 5 hours ago

Ground ~20,000 ft ~40,000 ft Winds

CYPX

Details ICAO CYPX (YPX)
Name PUVIRNITUQ
Region Canada
Timezone America/Montreal (UTC-4.0)
Stats Elevation 74 ft / 23 m (AMSL)
Location 60.050418° -77.286945°
Runways 1
Magnetic Variation 19.836° W

METAR

CYPX 242200Z AUTO 10012KT 9SM SCT018 BKN024 OVC080 M03/M06 A2985 RMK SLP112

Decode

TAF

TAF CYPX 241741Z 2418/2506 12012KT P6SM SCT015 OVC050 TEMPO 2418/2422 5SM -SN BR BKN015 BECMG 2420/2422 09008KT FM242200 09008KT P6SM SCT015 OVC040 TEMPO 2422/2506 3SM -SN BR OVC012 BECMG 2501/2503 03010KT RMK FCST BASED ON AUTO OBS. NXT FCST BY 250000Z

Decode

Departure Runways

ID Width Length Bearing (true) Bearing (mag) Surface Threshold Offset Overrun Length
01 100 ft / 30 m 4,971 ft / 1,515 m 343.44° 3.28° Gravel 0 ft / 0 m 0 ft / 0 m
19 100 ft / 30 m 4,971 ft / 1,515 m 163.44° 183.28° Gravel 0 ft / 0 m 0 ft / 0 m

CYYQ

Details ICAO CYYQ (YYQ)
Name CHURCHILL
Region Canada
Timezone America/Winnipeg (UTC-5.0)
Stats Elevation 94 ft / 29 m (AMSL)
Location 58.743971° -94.063864°
Runways 2
Magnetic Variation 2.066° W

METAR

CYYQ 242200Z 02015KT 12SM OVC003 00/M01 A2994 RMK SC8 SLP141

Decode

TAF

TAF AMD CYYQ 241910Z 2419/2518 01012KT P6SM BKN008 TEMPO 2419/2421 2SM BR BKN005 FM242100 01015KT 6SM BR OVC005 TEMPO 2421/2503 2SM BR FM250300 04015KT 6SM BR OVC004 TEMPO 2503/2515 03012KT 2SM BR OVC002 PROB30 2503/2512 1/2SM -FZDZ FZFG FM251500 08015KT P6SM SCT005 OVC012 RMK NXT FCST BY 250000Z

Decode

Destination Runways

ID Width Length Bearing (true) Bearing (mag) Surface Threshold Offset Overrun Length
07 100 ft / 30 m 3,988 ft / 1,215 m 70.97° 73.04° Gravel 0 ft / 0 m 0 ft / 0 m
15 160 ft / 49 m 9,178 ft / 2,797 m 152.64° 154.71° Asphalt 0 ft / 0 m 0 ft / 0 m
25 100 ft / 30 m 3,988 ft / 1,215 m 250.99° 253.06° Gravel 0 ft / 0 m 0 ft / 0 m
33 160 ft / 49 m 9,178 ft / 2,797 m 332.66° 334.73° Asphalt 0 ft / 0 m 0 ft / 0 m